Time;durP1;ratioP1;P1;durP2;ratioP2;P2;SDS_P1;SDS_P2;PMS_P1;PMS_P2;Temp;Humidity;BMP_temperature;BMP_pressure;BME280_temperature;BME280_humidity;BME280_pressure;Samples;Min_cycle;Max_cycle;Signal;HPM_P1;HPM_P2
2021/09/22 00:00:59;;;;;;;30.30;21.02;;;12.80;99.90;;;;;;2089669;28;20059;-71
2021/09/22 00:01:59;;;;;;;35.13;20.50;;;12.80;99.90;;;;;;2095528;28;20520;-71
2021/09/22 00:03:00;;;;;;;29.77;20.88;;;12.80;99.90;;;;;;2087350;28;20052;-71
2021/09/22 00:04:01;;;;;;;33.10;21.50;;;12.80;99.90;;;;;;2094864;28;20033;-70
2021/09/22 00:05:02;;;;;;;32.53;21.17;;;12.80;99.90;;;;;;2095467;28;20025;-70
2021/09/22 00:06:02;;;;;;;33.38;21.48;;;12.80;99.90;;;;;;2095444;28;20036;-71
2021/09/22 00:07:03;;;;;;;30.90;21.85;;;12.90;99.90;;;;;;2087343;28;20025;-71
2021/09/22 00:08:04;;;;;;;33.75;21.20;;;12.80;99.90;;;;;;2088221;28;20057;-71
2021/09/22 00:09:05;;;;;;;34.60;22.27;;;12.90;99.90;;;;;;2089146;28;20088;-71
2021/09/22 00:10:08;;;;;;;41.28;22.15;;;12.90;99.90;;;;;;2093184;28;20074;-70
2021/09/22 00:11:09;;;;;;;30.58;20.67;;;12.90;99.90;;;;;;2095344;28;20100;-70
2021/09/22 00:12:10;;;;;;;34.90;21.70;;;12.90;99.90;;;;;;2095697;28;20021;-70
2021/09/22 00:13:11;;;;;;;36.72;21.63;;;12.90;99.90;;;;;;2084412;28;20026;-70
2021/09/22 00:14:11;;;;;;;34.47;21.50;;;12.90;99.90;;;;;;2081863;28;20026;-70
2021/09/22 00:15:13;;;;;;;37.05;22.02;;;12.90;99.90;;;;;;2083529;28;20013;-70
2021/09/22 00:16:14;;;;;;;30.40;21.15;;;12.80;99.90;;;;;;2082209;28;20029;-70
2021/09/22 00:17:14;;;;;;;29.17;20.88;;;12.80;99.90;;;;;;2090134;28;20021;-70
2021/09/22 00:18:15;;;;;;;30.92;21.08;;;12.80;99.90;;;;;;2087490;28;20028;-71
2021/09/22 00:19:16;;;;;;;36.92;22.30;;;12.80;99.90;;;;;;2089871;28;20091;-71
2021/09/22 00:20:22;;;;;;;37.75;21.80;;;12.80;99.90;;;;;;2084123;28;20064;-70
2021/09/22 00:21:23;;;;;;;31.10;21.52;;;12.80;99.90;;;;;;2086984;28;20408;-70
2021/09/22 00:22:24;;;;;;;30.42;21.88;;;12.80;99.90;;;;;;2081929;28;20153;-70
2021/09/22 00:23:24;;;;;;;30.75;22.23;;;12.80;99.90;;;;;;2087965;28;20449;-70
2021/09/22 00:24:25;;;;;;;32.80;22.20;;;12.80;99.90;;;;;;2087209;28;20048;-70
2021/09/22 00:25:28;;;;;;;34.67;22.02;;;12.80;99.90;;;;;;2087380;28;20488;-70
2021/09/22 00:26:29;;;;;;;31.35;21.38;;;12.80;99.90;;;;;;2081891;28;20421;-71
2021/09/22 00:27:30;;;;;;;32.25;21.05;;;12.80;99.90;;;;;;2088503;28;20021;-70
2021/09/22 00:28:31;;;;;;;34.25;22.55;;;12.80;99.90;;;;;;2089219;28;20021;-71
2021/09/22 00:29:32;;;;;;;33.10;21.38;;;12.80;99.90;;;;;;2090082;28;20112;-70
2021/09/22 00:30:33;;;;;;;32.58;21.65;;;12.70;99.90;;;;;;2087644;28;20029;-70
2021/09/22 00:31:36;;;;;;;30.80;22.65;;;12.70;99.90;;;;;;2083610;28;20079;-70
2021/09/22 00:32:37;;;;;;;31.30;21.08;;;12.70;99.90;;;;;;2089293;28;20021;-70
2021/09/22 00:33:38;;;;;;;29.42;20.83;;;12.70;99.90;;;;;;2089330;28;20120;-71
2021/09/22 00:34:39;;;;;;;33.05;22.42;;;12.70;99.90;;;;;;2081633;28;20040;-72
2021/09/22 00:35:39;;;;;;;31.38;20.50;;;12.60;99.90;;;;;;2083756;28;20021;-70
2021/09/22 00:36:40;;;;;;;35.17;22.65;;;12.60;99.90;;;;;;2081845;28;20542;-70
2021/09/22 00:37:41;;;;;;;36.05;21.90;;;12.60;99.90;;;;;;2099001;28;20507;-70
2021/09/22 00:38:41;;;;;;;31.77;22.48;;;12.60;99.90;;;;;;2104601;28;20031;-70
2021/09/22 00:39:42;;;;;;;38.72;23.35;;;12.60;99.90;;;;;;2082392;28;20703;-70
2021/09/22 00:40:43;;;;;;;35.00;22.88;;;12.60;99.90;;;;;;2089672;28;20028;-70
2021/09/22 00:41:44;;;;;;;31.50;21.63;;;12.60;99.90;;;;;;2089509;28;20490;-70
2021/09/22 00:42:45;;;;;;;32.80;22.25;;;12.60;99.90;;;;;;2089267;28;20024;-71
2021/09/22 00:43:45;;;;;;;36.33;23.08;;;12.60;99.90;;;;;;2088843;28;20025;-70
2021/09/22 00:44:51;;;;;;;35.50;23.38;;;12.60;99.90;;;;;;2081801;28;20454;-71
2021/09/22 00:45:52;;;;;;;39.80;23.75;;;12.60;99.90;;;;;;2083356;28;20071;-70
2021/09/22 00:46:53;;;;;;;37.83;22.90;;;12.60;99.90;;;;;;2081510;28;20018;-70
2021/09/22 00:47:54;;;;;;;38.15;23.98;;;12.60;99.90;;;;;;2084762;28;20048;-71
2021/09/22 00:48:54;;;;;;;36.13;23.60;;;12.60;99.90;;;;;;2088006;28;20078;-71
2021/09/22 00:49:55;;;;;;;39.25;22.95;;;12.60;99.90;;;;;;2087415;28;20087;-70
2021/09/22 00:50:56;;;;;;;36.58;22.35;;;12.60;99.90;;;;;;2089111;28;20071;-71
2021/09/22 00:51:57;;;;;;;34.65;22.85;;;12.60;99.90;;;;;;2089439;28;20478;-71
2021/09/22 00:52:58;;;;;;;36.30;22.88;;;12.60;99.90;;;;;;2084435;28;20029;-71
2021/09/22 00:53:58;;;;;;;34.65;22.73;;;12.60;99.90;;;;;;2089179;28;20548;-70
2021/09/22 00:54:59;;;;;;;38.03;23.20;;;12.50;99.90;;;;;;2097701;28;20060;-70
2021/09/22 00:56:03;;;;;;;33.08;22.65;;;12.50;99.90;;;;;;2081721;28;20079;-70
2021/09/22 00:57:04;;;;;;;32.33;22.17;;;12.50;99.90;;;;;;2081833;28;20401;-70
2021/09/22 00:58:09;;;;;;;33.63;22.52;;;12.50;99.90;;;;;;2088904;28;20067;-71
2021/09/22 00:59:10;;;;;;;38.17;23.40;;;12.50;99.90;;;;;;2087656;28;20025;-70
2021/09/22 01:00:11;;;;;;;33.10;22.05;;;12.40;99.90;;;;;;2081618;28;20021;-70
2021/09/22 01:01:12;;;;;;;33.60;21.58;;;12.40;99.90;;;;;;2083390;28;20028;-70
2021/09/22 01:02:13;;;;;;;36.05;23.02;;;12.40;99.90;;;;;;2080845;28;20013;-70
2021/09/22 01:03:14;;;;;;;35.70;21.98;;;12.40;99.90;;;;;;2086834;28;20016;-71
2021/09/22 01:04:15;;;;;;;32.15;21.85;;;12.40;99.90;;;;;;2084316;28;20024;-71
2021/09/22 01:05:18;;;;;;;35.80;22.58;;;12.30;99.90;;;;;;2090060;28;20023;-70
2021/09/22 01:06:18;;;;;;;37.75;23.35;;;12.30;99.90;;;;;;2086977;28;20547;-71
2021/09/22 01:07:19;;;;;;;36.88;24.08;;;12.40;99.90;;;;;;2081625;28;20101;-71
2021/09/22 01:08:20;;;;;;;37.63;23.73;;;12.40;99.90;;;;;;2088882;28;20017;-71
2021/09/22 01:09:22;;;;;;;41.90;23.50;;;12.40;99.90;;;;;;2085515;28;20037;-71
2021/09/22 01:10:23;;;;;;;38.67;24.17;;;12.30;99.90;;;;;;2084247;28;20022;-71
2021/09/22 01:11:28;;;;;;;34.33;22.40;;;12.30;99.90;;;;;;2083414;28;20256;-70
2021/09/22 01:12:28;;;;;;;34.72;20.98;;;12.30;99.90;;;;;;2080898;28;20022;-70
2021/09/22 01:13:29;;;;;;;29.65;21.40;;;12.30;99.90;;;;;;2083600;28;20392;-71
2021/09/22 01:14:30;;;;;;;29.70;21.35;;;12.20;99.90;;;;;;2082160;28;20029;-71
2021/09/22 01:15:37;;;;;;;28.33;19.73;;;12.20;99.90;;;;;;2089618;28;20512;-70
2021/09/22 01:16:45;;;;;;;30.02;20.48;;;12.10;99.90;;;;;;2088732;28;20028;-71
2021/09/22 01:17:45;;;;;;;31.55;20.58;;;12.00;99.90;;;;;;2088889;28;20025;-75
2021/09/22 01:18:46;;;;;;;30.90;20.63;;;12.00;99.90;;;;;;2098165;28;20120;-70
2021/09/22 01:19:47;;;;;;;30.90;21.50;;;11.90;99.90;;;;;;2099092;28;20083;-71
2021/09/22 01:20:55;;;;;;;36.33;22.35;;;11.90;99.90;;;;;;2089365;28;20468;-71
2021/09/22 01:21:56;;;;;;;35.38;22.02;;;11.80;99.90;;;;;;2083573;28;20048;-70
2021/09/22 01:23:01;;;;;;;32.78;22.25;;;11.80;99.90;;;;;;2086553;28;20420;-71
2021/09/22 01:24:02;;;;;;;34.08;20.92;;;11.80;99.90;;;;;;2084441;28;20052;-71
2021/09/22 01:25:03;;;;;;;33.63;20.20;;;11.70;99.90;;;;;;2087138;28;20029;-71
2021/09/22 01:26:04;;;;;;;36.50;21.77;;;11.70;99.90;;;;;;2087504;28;20156;-71
2021/09/22 01:27:04;;;;;;;32.92;21.05;;;11.70;99.90;;;;;;2088821;28;20040;-71
2021/09/22 01:28:06;;;;;;;33.58;22.30;;;11.60;99.90;;;;;;2089802;28;20017;-71
2021/09/22 01:29:07;;;;;;;35.28;22.00;;;11.60;99.90;;;;;;2085462;28;20021;-71
2021/09/22 01:30:08;;;;;;;39.87;21.83;;;11.60;99.90;;;;;;2081671;28;20022;-71
2021/09/22 01:31:09;;;;;;;36.92;21.83;;;11.50;99.90;;;;;;2098005;28;20275;-71
2021/09/22 01:32:11;;;;;;;29.40;20.88;;;11.50;99.90;;;;;;2097130;28;20017;-71
2021/09/22 01:33:13;;;;;;;30.90;21.35;;;11.40;99.90;;;;;;2084930;28;20025;-71
2021/09/22 01:34:14;;;;;;;;;;;11.40;99.90;;;;;;2076933;28;20049;-71
2021/09/22 01:35:15;;;;;;;32.55;20.10;;;11.30;99.90;;;;;;2072888;28;20290;-71
2021/09/22 01:36:16;;;;;;;31.27;20.58;;;11.30;99.90;;;;;;2080733;28;20060;-71
2021/09/22 01:37:17;;;;;;;30.02;19.67;;;11.20;99.90;;;;;;2081875;28;20474;-71
2021/09/22 01:38:21;;;;;;;29.20;19.95;;;11.10;99.90;;;;;;2089200;28;20013;-72
2021/09/22 01:39:22;;;;;;;28.33;18.83;;;11.10;99.90;;;;;;2089119;28;20047;-70
2021/09/22 01:40:22;;;;;;;31.05;20.00;;;11.10;99.90;;;;;;2087282;28;20029;-71
2021/09/22 01:41:23;;;;;;;30.92;19.13;;;11.00;99.90;;;;;;2082944;28;20021;-71
2021/09/22 01:42:24;;;;;;;32.45;19.58;;;11.00;99.90;;;;;;2086056;28;20021;-71
2021/09/22 01:43:27;;;;;;;30.40;19.42;;;10.90;99.90;;;;;;2086328;28;20021;-71
2021/09/22 01:44:28;;;;;;;34.45;20.80;;;10.80;99.90;;;;;;2084130;28;20112;-70
2021/09/22 01:45:28;;;;;;;31.67;20.67;;;10.80;99.90;;;;;;2081007;28;20024;-71
2021/09/22 01:46:29;;;;;;;29.13;19.25;;;10.80;99.90;;;;;;2088812;28;20481;-71
2021/09/22 01:47:30;;;;;;;29.85;20.42;;;10.80;99.90;;;;;;2088386;28;20174;-71
2021/09/22 01:48:31;;;;;;;30.75;21.05;;;10.70;99.90;;;;;;2089344;28;20504;-71
2021/09/22 01:49:32;;;;;;;29.48;20.58;;;10.70;99.90;;;;;;2083670;28;20053;-71
2021/09/22 01:50:33;;;;;;;33.03;21.42;;;10.70;99.90;;;;;;2079984;28;20078;-71
2021/09/22 01:51:33;;;;;;;35.33;21.38;;;10.70;99.90;;;;;;2084140;28;20017;-70
2021/09/22 01:52:35;;;;;;;41.53;23.08;;;10.70;99.90;;;;;;2087047;28;20029;-71
2021/09/22 01:53:36;;;;;;;37.30;22.52;;;10.70;99.90;;;;;;2088902;28;20465;-71
2021/09/22 01:54:36;;;;;;;44.83;24.92;;;10.70;99.90;;;;;;2083507;28;20029;-71
2021/09/22 01:55:37;;;;;;;37.85;24.70;;;10.70;99.90;;;;;;2079828;28;20389;-71
2021/09/22 01:56:38;;;;;;;40.20;25.52;;;10.80;99.90;;;;;;2088033;28;20035;-71
2021/09/22 01:57:39;;;;;;;52.60;28.83;;;10.80;99.90;;;;;;2086496;28;20035;-71
2021/09/22 01:58:39;;;;;;;45.50;28.33;;;10.90;99.90;;;;;;2078746;28;20095;-71
2021/09/22 01:59:40;;;;;;;46.00;28.05;;;11.10;99.90;;;;;;2090936;28;20658;-71
2021/09/22 02:00:42;;;;;;;47.33;27.42;;;11.10;99.90;;;;;;2087978;28;20117;-71
2021/09/22 02:01:42;;;;;;;42.10;27.63;;;11.20;99.90;;;;;;2079146;28;20065;-71
2021/09/22 02:02:43;;;;;;;42.60;27.77;;;11.20;99.90;;;;;;2080033;28;20033;-71
2021/09/22 02:03:45;;;;;;;44.67;28.63;;;11.30;99.90;;;;;;2082561;28;20044;-71
2021/09/22 02:04:45;;;;;;;48.72;30.23;;;11.30;99.90;;;;;;2079734;28;20021;-71
2021/09/22 02:05:46;;;;;;;43.72;26.38;;;11.40;99.90;;;;;;2088140;28;20116;-71
2021/09/22 02:06:47;;;;;;;40.65;26.98;;;11.40;99.90;;;;;;2088879;28;20017;-74
2021/09/22 02:07:48;;;;;;;44.92;26.73;;;11.40;99.90;;;;;;2088561;28;20402;-72
2021/09/22 02:08:48;;;;;;;45.08;27.27;;;11.40;99.90;;;;;;2083685;28;20032;-72
2021/09/22 02:09:49;;;;;;;43.22;26.90;;;11.40;99.90;;;;;;2082025;28;20083;-72
2021/09/22 02:10:50;;;;;;;46.10;27.83;;;11.40;99.90;;;;;;2082231;28;20037;-71
2021/09/22 02:11:50;;;;;;;42.22;27.30;;;11.40;99.90;;;;;;2087388;28;20024;-78
2021/09/22 02:12:51;;;;;;;49.75;28.95;;;11.40;99.90;;;;;;2080991;28;20500;-75
2021/09/22 02:13:52;;;;;;;53.13;29.38;;;11.50;99.90;;;;;;2088010;28;20104;-75
2021/09/22 02:14:54;;;;;;;50.03;30.33;;;11.50;99.90;;;;;;2083574;28;20036;-72
2021/09/22 02:15:54;;;;;;;46.28;29.05;;;11.60;99.90;;;;;;2082040;28;20513;-73
2021/09/22 02:16:55;;;;;;;54.55;29.35;;;11.70;99.90;;;;;;2080758;28;20060;-72
2021/09/22 02:17:56;;;;;;;48.15;29.35;;;11.70;99.90;;;;;;2080769;28;20021;-71
2021/09/22 02:18:57;;;;;;;45.95;30.08;;;11.70;99.90;;;;;;2080963;28;20033;-71
2021/09/22 02:19:57;;;;;;;48.58;29.15;;;11.80;99.90;;;;;;2080581;28;20688;-71
2021/09/22 02:20:58;;;;;;;52.38;29.08;;;11.80;99.90;;;;;;2080998;28;20115;-72
2021/09/22 02:21:59;;;;;;;45.03;27.48;;;11.80;99.90;;;;;;2080261;28;20092;-71
2021/09/22 02:22:59;;;;;;;51.88;28.95;;;11.80;99.90;;;;;;2085532;28;20096;-71
2021/09/22 02:24:00;;;;;;;43.20;28.02;;;11.80;99.90;;;;;;2083594;28;20040;-72
2021/09/22 02:25:01;;;;;;;47.58;28.45;;;11.80;99.90;;;;;;2081450;28;20096;-73
2021/09/22 02:26:02;;;;;;;47.05;27.67;;;11.80;99.90;;;;;;2081233;28;20021;-72
2021/09/22 02:27:03;;;;;;;43.85;26.55;;;11.80;99.90;;;;;;2081307;28;20041;-72
2021/09/22 02:28:04;;;;;;;43.47;27.25;;;11.80;99.90;;;;;;2081423;28;20121;-71
2021/09/22 02:29:05;;;;;;;46.08;29.40;;;11.80;99.90;;;;;;2080091;28;20100;-71
2021/09/22 02:30:10;;;;;;;43.00;27.90;;;11.80;99.90;;;;;;2080722;28;20017;-72
2021/09/22 02:31:11;;;;;;;50.00;29.15;;;11.90;99.90;;;;;;2081411;28;20013;-71
2021/09/22 02:32:12;;;;;;;48.65;28.83;;;11.90;99.90;;;;;;2081317;28;20034;-72
2021/09/22 02:33:13;;;;;;;50.03;29.60;;;11.90;99.90;;;;;;2082908;28;20018;-71
2021/09/22 02:34:15;;;;;;;45.50;28.80;;;12.00;99.90;;;;;;2086737;28;20490;-71
2021/09/22 02:35:15;;;;;;;47.97;29.10;;;12.00;99.90;;;;;;2089157;28;20025;-71
2021/09/22 02:36:16;;;;;;;48.88;28.38;;;12.00;99.90;;;;;;2088797;28;20017;-71
2021/09/22 02:37:17;;;;;;;48.67;28.25;;;12.00;99.90;;;;;;2088492;28;20447;-72
2021/09/22 02:38:19;;;;;;;42.65;27.63;;;12.00;99.90;;;;;;2089040;28;20021;-72
2021/09/22 02:39:19;;;;;;;43.95;27.58;;;12.00;99.90;;;;;;2084846;28;20030;-72
2021/09/22 02:40:20;;;;;;;43.42;28.33;;;12.00;99.90;;;;;;2081209;28;20564;-72
2021/09/22 02:41:21;;;;;;;45.38;27.48;;;12.00;99.90;;;;;;2085208;28;20099;-71
2021/09/22 02:42:23;;;;;;;48.33;27.67;;;12.00;99.90;;;;;;2080061;28;20493;-72
2021/09/22 02:43:23;;;;;;;;;;;12.00;99.90;;;;;;2082218;28;20406;-72
2021/09/22 02:44:25;;;;;;;45.60;28.10;;;12.00;99.90;;;;;;2084380;28;19947;-72
2021/09/22 02:45:26;;;;;;;42.63;28.08;;;12.00;99.90;;;;;;2081531;28;20025;-71
2021/09/22 02:46:27;;;;;;;43.75;27.75;;;12.00;99.90;;;;;;2081196;28;20052;-72
2021/09/22 02:47:28;;;;;;;45.20;27.67;;;12.00;99.90;;;;;;2082627;28;20055;-72
2021/09/22 02:48:29;;;;;;;46.75;28.30;;;12.00;99.90;;;;;;2089699;28;20492;-71
2021/09/22 02:49:30;;;;;;;47.15;28.50;;;12.00;99.90;;;;;;2089276;28;20013;-71
2021/09/22 02:50:31;;;;;;;46.70;30.13;;;12.00;99.90;;;;;;2084174;28;20036;-71
2021/09/22 02:51:31;;;;;;;48.90;28.40;;;12.00;99.90;;;;;;2084403;28;20351;-71
2021/09/22 02:52:32;;;;;;;45.95;28.58;;;12.00;99.90;;;;;;2084438;28;20497;-72
2021/09/22 02:53:33;;;;;;;43.40;27.20;;;12.00;99.90;;;;;;2088925;28;20036;-71
2021/09/22 02:54:34;;;;;;;45.20;28.20;;;12.00;99.90;;;;;;2085081;28;20026;-71
2021/09/22 02:55:34;;;;;;;45.15;29.15;;;12.00;99.90;;;;;;2080673;28;20097;-71
2021/09/22 02:56:35;;;;;;;42.58;27.90;;;12.00;99.90;;;;;;2085522;28;20029;-72
2021/09/22 02:57:36;;;;;;;46.50;27.95;;;12.00;99.90;;;;;;2087755;28;20021;-71
2021/09/22 02:58:36;;;;;;;43.33;27.95;;;12.10;99.90;;;;;;2088715;28;20516;-72
2021/09/22 02:59:37;;;;;;;42.88;28.63;;;12.10;99.90;;;;;;2084351;28;20021;-71
2021/09/22 03:00:38;;;;;;;42.53;28.25;;;12.10;99.90;;;;;;2088656;28;20039;-71
2021/09/22 03:01:39;;;;;;;42.10;28.58;;;12.10;99.90;;;;;;2073709;28;20099;-71
2021/09/22 03:02:40;;;;;;;42.05;27.20;;;12.10;99.90;;;;;;2082157;28;20025;-71
2021/09/22 03:03:40;;;;;;;44.50;27.45;;;12.10;99.90;;;;;;2088580;28;20046;-71
2021/09/22 03:04:41;;;;;;;44.83;26.88;;;12.10;99.90;;;;;;2084043;28;20257;-72
2021/09/22 03:05:42;;;;;;;45.00;27.38;;;12.10;99.90;;;;;;2089036;28;20025;-71
2021/09/22 03:06:42;;;;;;;43.08;27.15;;;12.10;99.90;;;;;;2088446;28;20485;-71
2021/09/22 03:07:44;;;;;;;45.25;27.77;;;12.10;99.90;;;;;;2086470;28;20021;-71
2021/09/22 03:08:44;;;;;;;41.25;26.20;;;12.10;99.90;;;;;;2081382;28;20022;-71
2021/09/22 03:09:45;;;;;;;40.25;26.40;;;12.10;99.90;;;;;;2081345;28;20652;-72
2021/09/22 03:10:46;;;;;;;40.05;26.08;;;12.10;99.90;;;;;;2089321;28;20474;-71
2021/09/22 03:11:46;;;;;;;45.63;26.35;;;12.10;99.90;;;;;;2088265;28;20021;-71
2021/09/22 03:12:48;;;;;;;41.55;25.17;;;12.10;99.90;;;;;;2088686;28;20480;-71
2021/09/22 03:13:49;;;;;;;37.05;24.80;;;12.10;99.90;;;;;;2080340;28;20421;-72
2021/09/22 03:14:49;;;;;;;39.00;26.45;;;12.20;99.90;;;;;;2082405;28;20061;-72
2021/09/22 03:15:50;;;;;;;39.63;25.67;;;12.10;99.90;;;;;;2089444;28;20025;-71
2021/09/22 03:16:51;;;;;;;42.90;26.67;;;12.20;99.90;;;;;;2089094;28;20608;-71
2021/09/22 03:17:51;;;;;;;40.70;25.90;;;12.20;99.90;;;;;;2088689;28;20055;-71
2021/09/22 03:18:52;;;;;;;41.10;26.48;;;12.20;99.90;;;;;;2080840;28;20044;-71
2021/09/22 03:19:53;;;;;;;38.15;25.58;;;12.20;99.90;;;;;;2088600;28;20032;-71
2021/09/22 03:20:54;;;;;;;41.33;25.05;;;12.20;99.90;;;;;;2087742;28;20029;-71
2021/09/22 03:21:54;;;;;;;38.63;24.70;;;12.20;99.90;;;;;;2080325;28;20025;-73
2021/09/22 03:22:55;;;;;;;37.28;25.63;;;12.20;99.90;;;;;;2081090;28;20029;-72
2021/09/22 03:23:56;;;;;;;38.22;26.38;;;12.20;99.90;;;;;;2088156;28;20067;-71
2021/09/22 03:24:57;;;;;;;37.60;25.42;;;12.20;99.90;;;;;;2088558;28;20123;-72
2021/09/22 03:25:58;;;;;;;39.40;24.45;;;12.20;99.90;;;;;;2088471;28;20013;-72
2021/09/22 03:26:58;;;;;;;38.00;25.80;;;12.10;99.90;;;;;;2088359;28;20078;-71
2021/09/22 03:27:59;;;;;;;41.53;25.55;;;12.10;99.90;;;;;;2080376;28;20073;-72
2021/09/22 03:29:00;;;;;;;40.78;25.23;;;12.10;99.90;;;;;;2083706;28;20017;-72
2021/09/22 03:30:01;;;;;;;41.28;26.42;;;12.10;99.90;;;;;;2086964;28;20074;-72
2021/09/22 03:31:01;;;;;;;38.05;25.40;;;12.10;99.90;;;;;;2083892;28;20022;-72
2021/09/22 03:32:02;;;;;;;45.13;27.05;;;12.10;99.90;;;;;;2088974;28;20100;-72
2021/09/22 03:33:03;;;;;;;37.80;25.20;;;12.10;99.90;;;;;;2081064;28;20071;-72
2021/09/22 03:34:04;;;;;;;48.25;26.70;;;12.10;99.90;;;;;;2083830;28;20043;-72
2021/09/22 03:35:05;;;;;;;38.25;25.55;;;12.10;99.90;;;;;;2089389;28;20373;-72
2021/09/22 03:36:06;;;;;;;41.30;26.63;;;12.10;99.90;;;;;;2088032;28;20112;-72
2021/09/22 03:37:07;;;;;;;38.22;25.95;;;12.10;99.90;;;;;;2088635;28;20029;-72
2021/09/22 03:38:08;;;;;;;40.03;25.08;;;12.20;99.90;;;;;;2079855;28;20028;-72
2021/09/22 03:39:08;;;;;;;36.10;24.70;;;12.20;99.90;;;;;;2084804;28;20029;-75
2021/09/22 03:40:10;;;;;;;40.78;25.25;;;12.20;99.90;;;;;;2082112;28;20017;-73
2021/09/22 03:41:11;;;;;;;38.10;24.58;;;12.20;99.90;;;;;;2081918;28;20214;-72
2021/09/22 03:42:11;;;;;;;36.75;24.02;;;12.10;99.90;;;;;;2082082;28;20029;-72
2021/09/22 03:43:12;;;;;;;38.45;24.75;;;12.10;99.90;;;;;;2081952;28;20021;-75
2021/09/22 03:44:13;;;;;;;37.50;25.42;;;12.00;99.90;;;;;;2083265;28;20025;-72
2021/09/22 03:45:13;;;;;;;38.00;23.65;;;12.00;99.90;;;;;;2080770;28;20079;-76
2021/09/22 03:46:14;;;;;;;39.05;24.40;;;11.90;99.90;;;;;;2083722;28;20487;-76
2021/09/22 03:47:15;;;;;;;38.00;23.65;;;11.90;99.90;;;;;;2079827;28;20026;-73
2021/09/22 03:48:16;;;;;;;35.92;24.90;;;11.90;99.90;;;;;;2085508;28;20108;-71
2021/09/22 03:49:16;;;;;;;38.97;24.38;;;11.80;99.90;;;;;;2080813;28;20463;-71
2021/09/22 03:50:17;;;;;;;41.65;25.75;;;11.80;99.90;;;;;;2081900;28;20363;-71
2021/09/22 03:51:18;;;;;;;36.38;24.80;;;11.80;99.90;;;;;;2081593;28;20041;-71
2021/09/22 03:52:18;;;;;;;39.03;26.23;;;11.80;99.90;;;;;;2087944;28;20029;-71
2021/09/22 03:53:21;;;;;;;41.30;26.90;;;11.80;99.90;;;;;;2081121;28;20058;-71
2021/09/22 03:54:21;;;;;;;40.60;26.30;;;11.80;99.90;;;;;;2082549;28;20033;-71
2021/09/22 03:55:22;;;;;;;39.95;25.80;;;11.90;99.90;;;;;;2081069;28;20026;-71
2021/09/22 03:56:23;;;;;;;42.15;26.42;;;11.90;99.90;;;;;;2083203;28;20378;-72
2021/09/22 03:57:24;;;;;;;37.85;25.58;;;11.90;99.90;;;;;;2080523;28;20037;-72
2021/09/22 03:58:24;;;;;;;39.40;25.50;;;11.90;99.90;;;;;;2081404;28;20025;-72
2021/09/22 03:59:25;;;;;;;37.42;25.45;;;11.90;99.90;;;;;;2083613;28;20466;-72
2021/09/22 04:00:26;;;;;;;40.65;26.05;;;11.80;99.90;;;;;;2082650;28;20075;-72
2021/09/22 04:01:27;;;;;;;40.00;24.48;;;11.80;99.90;;;;;;2084828;28;20049;-72
2021/09/22 04:02:28;;;;;;;41.28;24.63;;;11.70;99.90;;;;;;2090704;28;20064;-72
2021/09/22 04:03:29;;;;;;;38.90;25.73;;;11.60;99.90;;;;;;2085321;28;20029;-72
2021/09/22 04:04:29;;;;;;;40.30;26.85;;;11.60;99.90;;;;;;2087231;28;20504;-72
2021/09/22 04:05:30;;;;;;;44.88;26.60;;;11.60;99.90;;;;;;2082261;28;20041;-72
2021/09/22 04:06:32;;;;;;;46.80;27.75;;;11.60;99.90;;;;;;2085048;28;20026;-72
2021/09/22 04:07:32;;;;;;;45.30;28.80;;;11.50;99.90;;;;;;2090789;28;20025;-72
2021/09/22 04:08:33;;;;;;;49.80;29.02;;;11.60;99.90;;;;;;2082370;28;20036;-72
2021/09/22 04:09:34;;;;;;;44.30;29.15;;;11.60;99.90;;;;;;2088689;28;20025;-72
2021/09/22 04:10:34;;;;;;;48.92;30.15;;;11.70;99.90;;;;;;2082652;28;20489;-72
2021/09/22 04:11:36;;;;;;;46.60;29.33;;;11.60;99.90;;;;;;2085903;28;20435;-72
2021/09/22 04:12:36;;;;;;;43.50;29.13;;;11.70;99.90;;;;;;2099092;28;20035;-72
2021/09/22 04:13:37;;;;;;;49.03;29.58;;;11.70;99.90;;;;;;2086112;28;20282;-72
2021/09/22 04:14:38;;;;;;;50.40;30.80;;;11.70;99.90;;;;;;2081667;28;20191;-72
2021/09/22 04:15:39;;;;;;;48.63;29.42;;;11.70;99.90;;;;;;2084056;28;20033;-71
2021/09/22 04:16:39;;;;;;;44.70;28.77;;;11.70;99.90;;;;;;2083819;28;20503;-72
2021/09/22 04:17:40;;;;;;;43.80;29.30;;;11.70;99.90;;;;;;2082359;28;20576;-72
2021/09/22 04:18:41;;;;;;;43.78;27.25;;;11.60;99.90;;;;;;2087492;28;20098;-72
2021/09/22 04:19:42;;;;;;;45.33;27.10;;;11.60;99.90;;;;;;2081451;28;20037;-72
2021/09/22 04:20:42;;;;;;;41.45;26.33;;;11.60;99.90;;;;;;2085665;28;20808;-72
2021/09/22 04:21:44;;;;;;;43.08;28.08;;;11.50;99.90;;;;;;2081672;28;20022;-72
2021/09/22 04:22:44;;;;;;;43.67;26.65;;;11.40;99.90;;;;;;2082291;28;20022;-72
2021/09/22 04:23:45;;;;;;;40.25;26.88;;;11.40;99.90;;;;;;2084512;28;20519;-72
2021/09/22 04:24:46;;;;;;;45.58;27.00;;;11.30;99.90;;;;;;2090652;28;20047;-72
2021/09/22 04:25:47;;;;;;;48.40;30.35;;;11.30;99.90;;;;;;2089104;28;20028;-72
2021/09/22 04:26:47;;;;;;;44.50;29.15;;;11.30;99.90;;;;;;2090216;28;20550;-72
2021/09/22 04:27:48;;;;;;;46.88;29.95;;;11.30;99.90;;;;;;2085012;28;20032;-72
2021/09/22 04:28:49;;;;;;;46.60;29.63;;;11.30;99.90;;;;;;2088634;28;20100;-72
2021/09/22 04:29:49;;;;;;;51.58;31.33;;;11.40;99.90;;;;;;2082087;28;20026;-72
2021/09/22 04:30:50;;;;;;;54.53;29.30;;;11.50;99.90;;;;;;2084569;28;20517;-71
2021/09/22 04:31:51;;;;;;;43.17;29.00;;;11.50;99.90;;;;;;2090734;28;20032;-74
2021/09/22 04:32:51;;;;;;;50.25;30.15;;;11.50;99.90;;;;;;2090304;28;20036;-71
2021/09/22 04:33:52;;;;;;;46.13;28.92;;;11.50;99.90;;;;;;2089567;28;20040;-72
2021/09/22 04:34:53;;;;;;;45.50;29.65;;;11.60;99.90;;;;;;2081972;28;20548;-72
2021/09/22 04:35:55;;;;;;;48.00;30.13;;;11.60;99.90;;;;;;2084013;28;20126;-72
2021/09/22 04:36:56;;;;;;;45.42;28.77;;;11.60;99.90;;;;;;2084872;28;20512;-72
2021/09/22 04:37:57;;;;;;;46.85;30.02;;;11.60;99.90;;;;;;2088568;28;20032;-72
2021/09/22 04:38:58;;;;;;;46.78;29.95;;;11.60;99.90;;;;;;2088421;28;20516;-71
2021/09/22 04:39:59;;;;;;;45.22;29.33;;;11.60;99.90;;;;;;2089507;28;20029;-71
2021/09/22 04:40:59;;;;;;;45.05;29.42;;;11.60;99.90;;;;;;2084355;28;20390;-72
2021/09/22 04:42:00;;;;;;;49.05;28.33;;;11.60;99.90;;;;;;2089240;28;20029;-72
2021/09/22 04:43:01;;;;;;;45.10;28.15;;;11.60;99.90;;;;;;2081046;28;20097;-72
2021/09/22 04:44:02;;;;;;;48.45;29.23;;;11.60;99.90;;;;;;2081509;28;20033;-72
2021/09/22 04:45:05;;;;;;;49.95;29.50;;;11.60;99.90;;;;;;2081502;28;20072;-72
2021/09/22 04:46:06;;;;;;;47.72;29.75;;;11.60;99.90;;;;;;2086077;28;20547;-72
2021/09/22 04:47:07;;;;;;;44.90;29.13;;;11.60;99.90;;;;;;2089655;28;20060;-72
2021/09/22 04:48:07;;;;;;;47.53;28.27;;;11.60;99.90;;;;;;2082452;28;20095;-72
2021/09/22 04:49:09;;;;;;;46.97;28.98;;;11.60;99.90;;;;;;2082165;28;20014;-71
2021/09/22 04:50:10;;;;;;;;;;;11.60;99.90;;;;;;2085407;28;20088;-72
2021/09/22 04:51:11;;;;;;;44.45;28.80;;;11.60;99.90;;;;;;2088328;28;19909;-72
2021/09/22 04:52:11;;;;;;;47.50;29.88;;;11.60;99.90;;;;;;2090180;28;20025;-72
2021/09/22 04:53:12;;;;;;;47.28;31.00;;;11.70;99.90;;;;;;2088245;28;20112;-72
2021/09/22 04:54:13;;;;;;;45.95;29.33;;;11.70;99.90;;;;;;2089281;28;20024;-72
2021/09/22 04:55:14;;;;;;;41.75;29.45;;;11.70;99.90;;;;;;2087059;28;20151;-72
2021/09/22 04:56:15;;;;;;;45.65;29.25;;;11.70;99.90;;;;;;2082044;28;20033;-72
2021/09/22 04:57:16;;;;;;;43.05;28.92;;;11.70;99.90;;;;;;2081257;28;20056;-71
2021/09/22 04:58:16;;;;;;;41.92;28.15;;;11.70;99.90;;;;;;2082639;28;20031;-72
2021/09/22 04:59:17;;;;;;;43.50;28.80;;;11.60;99.90;;;;;;2073405;28;20062;-72
2021/09/22 05:00:18;;;;;;;47.47;29.45;;;11.60;99.90;;;;;;2078971;28;20033;-71
2021/09/22 05:01:18;;;;;;;46.00;29.38;;;11.60;99.90;;;;;;2086377;28;20033;-71
2021/09/22 05:02:19;;;;;;;44.00;30.20;;;11.70;99.90;;;;;;2089572;28;20408;-71
2021/09/22 05:03:20;;;;;;;50.40;29.88;;;11.70;99.90;;;;;;2087716;28;20577;-72
2021/09/22 05:04:20;;;;;;;48.17;29.65;;;11.70;99.90;;;;;;2087359;28;20033;-72
2021/09/22 05:05:21;;;;;;;43.72;28.92;;;11.70;99.90;;;;;;2073592;28;20524;-72
2021/09/22 05:06:22;;;;;;;42.75;28.23;;;11.70;99.90;;;;;;2084035;28;20100;-71
2021/09/22 05:07:23;;;;;;;43.45;28.15;;;11.70;99.90;;;;;;2082010;28;20056;-72
2021/09/22 05:08:24;;;;;;;43.85;28.20;;;11.80;99.90;;;;;;2081151;28;20689;-71
2021/09/22 05:09:25;;;;;;;41.95;28.95;;;11.80;99.90;;;;;;2081390;28;20030;-72
2021/09/22 05:10:27;;;;;;;46.00;29.42;;;11.80;99.90;;;;;;2090102;28;20099;-72